Time;durP1;ratioP1;P1;durP2;ratioP2;P2;SDS_P1;SDS_P2;PMS_P1;PMS_P2;Temp;Humidity;BMP_temperature;BMP_pressure;BME280_temperature;BME280_humidity;BME280_pressure;Samples;Min_cycle;Max_cycle;Signal;HPM_P1;HPM_P2
2022/09/18 00:03:03;;;;;;;1.37;0.90;;;;;;;9.98;100.00;99490.22;5300589;55;1138875;-74
2022/09/18 00:08:09;;;;;;;3.50;1.37;;;;;;;9.92;100.00;99482.87;5268537;55;1137014;-74
2022/09/18 00:13:16;;;;;;;5.13;1.77;;;;;;;9.83;100.00;99488.48;5307222;55;1136926;-74
2022/09/18 00:18:22;;;;;;;4.90;1.50;;;;;;;9.70;100.00;99481.34;5297861;55;1136299;-73
2022/09/18 00:23:29;;;;;;;4.53;1.70;;;;;;;9.62;100.00;99483.84;5182558;56;1136386;-74
2022/09/18 00:28:36;;;;;;;3.27;1.10;;;;;;;9.55;100.00;99481.39;5074202;57;1136857;-74
2022/09/18 00:33:42;;;;;;;6.43;2.50;;;;;;;9.52;100.00;99486.45;4994967;57;1137095;-73
2022/09/18 00:38:49;;;;;;;4.07;2.17;;;;;;;9.46;100.00;99480.42;5137197;56;1136937;-74
2022/09/18 00:44:15;;;;;;;1.60;0.90;;;;;;;9.43;100.00;99480.70;5049876;57;1136953;-74
2022/09/18 00:49:26;;;;;;;3.03;1.33;;;;;;;9.37;100.00;99480.75;4945119;58;1137197;-74
2022/09/18 00:54:41;;;;;;;7.37;1.33;;;;;;;9.31;100.00;99481.31;4936708;59;1136977;-74
2022/09/18 00:59:50;;;;;;;10.67;1.80;;;;;;;9.31;100.00;99477.35;4913057;59;1136935;-74
2022/09/18 01:04:56;;;;;;;5.77;1.13;;;;;;;9.31;100.00;99469.92;4918812;59;1136996;-73
2022/09/18 01:10:19;;;;;;;3.47;1.33;;;;;;;9.27;100.00;99469.35;4919181;59;1134906;-74
2022/09/18 01:15:31;;;;;;;5.73;1.63;;;;;;;9.22;100.00;99461.00;4961245;59;1134902;-74
2022/09/18 01:20:56;;;;;;;1.52;1.40;;;;;;;9.22;100.00;99461.00;4985899;59;1134786;-74
2022/09/18 01:26:19;;;;;;;1.90;1.20;;;;;;;9.16;100.00;99468.16;4999578;58;1134873;-73
2022/09/18 01:31:38;;;;;;;4.20;1.50;;;;;;;9.07;100.00;99463.19;5049076;58;1134916;-74
2022/09/18 01:36:49;;;;;;;10.03;1.77;;;;;;;9.00;100.00;99464.72;5065189;57;1136945;-74
2022/09/18 01:42:00;;;;;;;4.12;1.45;;;;;;;8.88;100.00;99468.89;5156277;56;1139042;-74
2022/09/18 01:47:10;;;;;;;2.53;1.10;;;;;;;8.79;100.00;99469.22;5045554;57;1136859;-73
2022/09/18 01:52:32;;;;;;;2.77;1.20;;;;;;;8.76;100.00;99461.09;5099388;57;1137552;-73
2022/09/18 01:57:52;;;;;;;6.77;1.50;;;;;;;8.72;100.00;99460.16;5068116;58;1136980;-73
2022/09/18 02:03:14;;;;;;;2.90;1.77;;;;;;;8.72;100.00;99458.36;5002402;58;1137231;-74
2022/09/18 02:08:31;;;;;;;2.97;1.07;;;;;;;8.76;100.00;99462.89;5200805;56;1136921;-74
2022/09/18 02:13:48;;;;;;;5.83;0.87;;;;;;;8.72;100.00;99457.04;5187201;56;1136958;-74
2022/09/18 02:18:59;;;;;;;2.37;1.20;;;;;;;8.71;100.00;99457.17;5242640;56;1137246;-74
2022/09/18 02:24:09;;;;;;;8.43;1.83;;;;;;;8.64;100.00;99453.41;5243011;56;1136922;-74
2022/09/18 02:29:18;;;;;;;5.45;1.30;;;;;;;8.63;100.00;99451.74;5156352;57;1136959;-74
2022/09/18 02:34:25;;;;;;;4.10;1.35;;;;;;;8.66;100.00;99454.12;5126010;57;1136866;-73
2022/09/18 02:40:00;;;;;;;2.58;0.98;;;;;;;8.66;100.00;99447.05;5156542;56;1137039;-74
2022/09/18 02:45:38;;;;;;;2.63;0.90;;;;;;;8.62;100.00;99445.64;5208133;56;1137232;-73
2022/09/18 02:51:07;;;;;;;1.80;1.23;;;;;;;8.58;100.00;99452.61;5243263;55;1134844;-73
2022/09/18 02:56:18;;;;;;;2.07;1.40;;;;;;;8.60;100.00;99450.20;5156588;57;1134901;-73
2022/09/18 03:01:27;;;;;;;6.83;1.20;;;;;;;8.59;100.00;99455.12;5156054;57;1134888;-73
2022/09/18 03:06:35;;;;;;;6.23;1.30;;;;;;;8.54;100.00;99463.09;5156552;56;1134790;-74
2022/09/18 03:11:41;;;;;;;5.73;1.63;;;;;;;8.54;100.00;99465.72;5177870;56;1134892;-74
2022/09/18 03:16:47;;;;;;;2.50;1.40;;;;;;;8.56;100.00;99465.08;5185564;55;1135100;-73
2022/09/18 03:21:53;;;;;;;4.93;1.07;;;;;;;8.55;100.00;99465.59;5242886;55;1133210;-74
2022/09/18 03:27:00;;;;;;;1.40;1.00;;;;;;;8.52;100.00;99475.08;5220082;56;1133131;-73
2022/09/18 03:32:06;;;;;;;6.63;1.27;;;;;;;8.49;100.00;99472.70;5219867;56;1136908;-74
2022/09/18 03:37:17;;;;;;;3.97;1.07;;;;;;;8.54;100.00;99476.27;5201449;56;1136779;-74
2022/09/18 03:42:24;;;;;;;4.22;1.10;;;;;;;8.52;100.00;99476.88;5206007;56;1137060;-73
2022/09/18 03:47:31;;;;;;;3.00;1.00;;;;;;;8.49;100.00;99479.28;5148346;56;1136951;-74
2022/09/18 03:52:39;;;;;;;4.93;1.90;;;;;;;8.50;100.00;99474.85;5158808;56;1137153;-74
2022/09/18 03:57:50;;;;;;;5.27;1.97;;;;;;;8.52;100.00;99472.44;5143580;56;1137242;-74
2022/09/18 04:03:16;;;;;;;3.83;1.17;;;;;;;8.55;100.00;99467.39;5007158;58;1137218;-74
2022/09/18 04:08:27;;;;;;;6.93;1.27;;;;;;;8.52;100.00;99457.95;4972292;57;1137144;-74
2022/09/18 04:13:40;;;;;;;5.27;1.40;;;;;;;8.54;100.00;99460.45;5123556;57;1136832;-73
2022/09/18 04:18:47;;;;;;;4.40;1.43;;;;;;;8.56;100.00;99457.17;5066112;57;1137151;-73
2022/09/18 04:23:59;;;;;;;4.43;1.43;;;;;;;8.57;100.00;99457.05;5077197;58;1137079;-73
2022/09/18 04:29:05;;;;;;;4.53;0.93;;;;;;;8.56;100.00;99463.28;5077737;57;1137104;-73
2022/09/18 04:34:12;;;;;;;1.47;1.30;;;;;;;8.52;100.00;99457.95;5077809;58;1136972;-73
2022/09/18 04:39:18;;;;;;;2.13;1.33;;;;;;;8.52;100.00;99460.58;5043006;57;1136968;-73
2022/09/18 04:44:24;;;;;;;4.70;1.30;;;;;;;8.55;100.00;99472.67;5119435;57;1137100;-73
2022/09/18 04:49:31;;;;;;;5.03;2.07;;;;;;;8.53;100.00;99460.94;5040919;58;1136975;-74
2022/09/18 04:54:38;;;;;;;1.60;1.30;;;;;;;8.53;100.00;99460.10;5152100;57;1136901;-74
2022/09/18 04:59:44;;;;;;;1.23;0.90;;;;;;;8.53;100.00;99458.30;5161736;56;1137277;-74
2022/09/18 05:04:50;;;;;;;5.80;1.60;;;;;;;8.58;100.00;99459.20;5077458;57;1137186;-73
2022/09/18 05:09:58;;;;;;;7.23;1.40;;;;;;;8.58;100.00;99456.08;5076360;57;1137073;-73
2022/09/18 05:15:06;;;;;;;10.33;1.70;;;;;;;8.55;100.00;99458.17;5157201;57;1136865;-73
2022/09/18 05:20:12;;;;;;;3.50;1.30;;;;;;;8.56;100.00;99469.87;5020194;58;1139075;-73
2022/09/18 05:25:26;;;;;;;4.30;1.30;;;;;;;8.61;100.00;99460.26;4996309;58;1137025;-73
2022/09/18 05:30:27;;;;;;;5.37;1.40;;;;;;;8.62;100.00;99460.13;5027113;57;1136953;-74
2022/09/18 05:35:37;;;;;;;2.40;1.40;;;;;;;8.61;100.00;99466.37;4928378;59;1136997;-73
2022/09/18 05:40:43;;;;;;;5.23;1.50;;;;;;;8.63;100.00;99460.97;4968583;58;1137325;-73
2022/09/18 05:45:49;;;;;;;2.43;1.57;;;;;;;8.65;100.00;99460.36;5056138;57;1136958;-72
2022/09/18 05:50:57;;;;;;;3.00;1.30;;;;;;;8.67;100.00;99469.80;5006907;58;1134868;-73
2022/09/18 05:56:04;;;;;;;3.30;1.63;;;;;;;8.67;100.00;99472.92;5020035;57;1134813;-73
2022/09/18 06:01:13;;;;;;;4.20;2.13;;;;;;;8.69;100.00;99473.15;5077261;57;1134849;-73
2022/09/18 06:06:24;;;;;;;4.17;1.98;;;;;;;8.71;100.00;99471.67;4983556;58;1134809;-73
2022/09/18 06:11:30;;;;;;;10.00;2.60;;;;;;;8.76;100.00;99478.22;5070990;57;1135201;-73
2022/09/18 06:16:36;;;;;;;3.07;2.87;;;;;;;8.84;100.00;99467.03;5073478;57;1137303;-72
2022/09/18 06:21:44;;;;;;;4.23;2.83;;;;;;;8.91;100.00;99469.94;5232122;56;1134913;-73
2022/09/18 06:26:52;;;;;;;4.90;3.97;;;;;;;8.94;100.00;99467.05;5062410;58;1135057;-73
2022/09/18 06:31:58;;;;;;;9.00;4.10;;;;;;;8.95;100.00;99470.87;5165590;56;1134870;-73
2022/09/18 06:37:05;;;;;;;6.93;3.60;;;;;;;9.03;100.00;99469.70;5124572;56;1134808;-73
2022/09/18 06:42:22;;;;;;;7.03;4.17;;;;;;;9.12;100.00;99470.23;5184030;56;1135015;-73
2022/09/18 06:47:42;;;;;;;11.30;3.93;;;;;;;9.19;100.00;99471.82;5170088;56;21778;-73
2022/09/18 06:52:48;;;;;;;11.80;4.10;;;;;;;9.26;100.00;99469.48;5188838;56;1134779;-74
2022/09/18 06:57:58;;;;;;;7.00;3.90;;;;;;;9.31;100.00;99473.39;5169413;56;1139022;-74
2022/09/18 07:03:06;;;;;;;6.93;4.17;;;;;;;9.33;100.00;99471.91;5173193;56;1136904;-74
2022/09/18 07:08:33;;;;;;;7.60;4.10;;;;;;;9.41;100.00;99473.40;5164541;56;1136928;-74
2022/09/18 07:13:41;;;;;;;5.90;3.27;;;;;;;9.46;100.00;99475.98;5166787;56;1137003;-74
2022/09/18 07:18:49;;;;;;;4.50;3.40;;;;;;;9.50;100.00;99474.72;5154717;56;1137058;-74
2022/09/18 07:23:56;;;;;;;4.63;2.93;;;;;;;9.58;100.00;99485.92;5118891;57;1136932;-73
2022/09/18 07:29:02;;;;;;;2.67;1.80;;;;;;;9.65;100.00;99481.73;5113078;56;1137349;-73
2022/09/18 07:34:11;;;;;;;1.82;1.47;;;;;;;9.76;100.00;99485.59;5120937;57;1136885;-72
2022/09/18 07:39:17;;;;;;;2.03;1.23;;;;;;;9.86;100.00;99477.17;5134841;57;1136948;-73
2022/09/18 07:44:42;;;;;;;4.23;1.33;;;;;;;9.93;100.00;99478.74;5119974;56;1136962;-75
2022/09/18 07:49:49;;;;;;;2.60;2.07;;;;;;;10.03;100.00;99486.19;5114135;56;1136955;-73
2022/09/18 07:54:56;;;;;;;2.10;1.00;;;;;;;10.11;100.00;99483.66;5125080;56;1139128;-73
2022/09/18 08:00:05;;;;;;;1.97;1.50;;;;;;;10.15;100.00;99490.34;5122953;56;1139038;-73
2022/09/18 08:05:14;;;;;;;0.87;0.87;;;;;;;10.18;100.00;99491.88;5107321;56;1139071;-74
2022/09/18 08:10:24;;;;;;;1.13;0.80;;;;;;;10.27;100.00;99483.60;5119155;57;1139271;-74
2022/09/18 08:15:33;;;;;;;0.90;0.90;;;;;;;10.39;100.00;99483.28;5087226;56;1139024;-75
2022/09/18 08:20:47;;;;;;;0.87;0.80;;;;;;;10.46;100.00;99486.20;5159435;56;1139254;-73
2022/09/18 08:26:06;;;;;;;5.20;0.80;;;;;;;10.50;100.00;99495.52;5204985;56;1138987;-75
2022/09/18 08:31:12;;;;;;;1.07;0.63;;;;;;;10.52;100.00;99501.50;5166034;56;1139118;-74
2022/09/18 08:36:18;;;;;;;1.23;0.80;;;;;;;10.56;100.00;99502.86;5196195;56;1138967;-74
2022/09/18 08:42:17;;;;;;;0.53;0.43;;;;;;;10.63;100.00;99507.10;5136074;57;1136980;-74
2022/09/18 08:47:34;;;;;;;1.37;0.90;;;;;;;10.68;100.00;99509.67;5221723;56;1136957;-74
2022/09/18 08:52:45;;;;;;;0.60;0.60;;;;;;;10.62;100.00;99506.27;5310581;55;1137014;-74
2022/09/18 08:58:02;;;;;;;1.60;0.60;;;;;;;10.63;100.00;99512.39;5230421;55;1137207;-75
2022/09/18 09:03:35;;;;;;;2.23;0.53;;;;;;;10.67;100.00;99507.16;5242571;55;1134710;-74
2022/09/18 09:08:58;;;;;;;1.93;1.33;;;;;;;10.67;100.00;99513.29;5242717;56;1138997;-75
2022/09/18 09:14:21;;;;;;;1.67;0.60;;;;;;;10.71;100.00;99515.97;5242732;56;1139068;-74
2022/09/18 09:19:31;;;;;;;0.60;0.60;;;;;;;10.79;100.00;99513.94;5214561;55;1139078;-74
2022/09/18 09:25:09;;;;;;;1.77;0.67;;;;;;;10.86;100.00;99515.01;5174162;56;1139155;-74
2022/09/18 09:30:31;;;;;;;1.80;1.47;;;;;;;10.89;100.00;99508.11;5204201;56;1138928;-74
2022/09/18 09:35:49;;;;;;;51.20;20.45;;;;;;;10.93;100.00;99513.46;5094823;56;1139114;-74
2022/09/18 09:41:01;;;;;;;1.30;0.70;;;;;;;10.98;100.00;99507.74;5250245;55;1143209;-74
2022/09/18 09:46:36;;;;;;;1.57;0.53;;;;;;;11.05;100.00;99520.22;5252184;55;1139002;-74
2022/09/18 09:52:22;;;;;;;4.33;2.17;;;;;;;11.11;100.00;99526.27;5223247;55;1136579;-74
2022/09/18 09:57:39;;;;;;;2.10;1.17;;;;;;;11.23;100.00;99533.52;5249830;55;1137115;-74
2022/09/18 10:03:14;;;;;;;2.73;1.00;;;;;;;11.35;100.00;99541.59;5250836;55;1136916;-74
2022/09/18 10:08:41;;;;;;;2.37;1.00;;;;;;;11.45;100.00;99542.39;5253172;55;1134985;-74
2022/09/18 10:13:51;;;;;;;3.33;0.90;;;;;;;11.50;100.00;99543.25;5252677;55;1139085;-73
2022/09/18 10:19:00;;;;;;;7.40;2.77;;;;;;;11.56;100.00;99543.99;5239549;55;1139575;-73
2022/09/18 10:24:17;;;;;;;5.07;1.40;;;;;;;11.67;100.00;99554.86;5216132;56;1139260;-74
2022/09/18 10:29:23;;;;;;;9.07;3.67;;;;;;;11.74;100.00;99559.91;5211783;56;1139010;-74
2022/09/18 10:34:39;;;;;;;7.83;2.63;;;;;;;11.79;100.00;99561.14;5211972;56;1138981;-73
2022/09/18 10:39:52;;;;;;;3.40;0.90;;;;;;;11.91;100.00;99573.70;5257270;55;1139062;-73
2022/09/18 10:45:03;;;;;;;4.70;1.02;;;;;;;12.00;100.00;99567.98;5260688;55;1138884;-74
2022/09/18 10:50:18;;;;;;;3.87;1.10;;;;;;;12.07;100.00;99574.35;5112715;57;1139154;-74
2022/09/18 10:55:28;;;;;;;6.27;2.63;;;;;;;12.15;100.00;99580.55;5101663;57;1139083;-73
2022/09/18 11:00:48;;;;;;;8.37;2.17;;;;;;;12.23;100.00;99582.42;5254946;55;1139079;-73
2022/09/18 11:06:03;;;;;;;4.13;1.30;;;;;;;12.24;100.00;99584.92;5251297;55;1139052;-73
2022/09/18 11:11:34;;;;;;;6.23;1.30;;;;;;;12.17;100.00;99585.20;5178353;56;1139029;-74
2022/09/18 11:16:49;;;;;;;4.53;1.00;;;;;;;12.15;100.00;99585.02;5243893;55;1138939;-73
2022/09/18 11:21:59;;;;;;;7.90;2.37;;;;;;;12.16;100.00;99594.63;5247021;55;1139092;-73
2022/09/18 11:27:23;;;;;;;8.50;2.60;;;;;;;12.15;100.00;99591.16;5238591;55;1136929;-73
2022/09/18 11:32:33;;;;;;;3.57;1.37;;;;;;;12.15;100.00;99591.16;5193935;55;1136926;-73
2022/09/18 11:37:50;;;;;;;10.80;2.20;;;;;;;12.13;100.00;99597.09;5247435;55;1136958;-73
2022/09/18 11:42:57;;;;;;;6.77;1.47;;;;;;;12.10;100.00;99599.20;5257256;55;1139061;-73
2022/09/18 11:48:27;;;;;;;6.77;1.30;;;;;;;12.02;100.00;99603.95;5256627;55;1136894;-73
2022/09/18 11:53:41;;;;;;;8.00;1.70;;;;;;;11.83;100.00;99602.75;5253115;55;1137002;-73
2022/09/18 11:58:59;;;;;;;10.77;3.53;;;;;;;11.59;100.00;99608.58;5179823;56;1138978;-74
2022/09/18 12:04:20;;;;;;;9.93;2.77;;;;;;;11.54;100.00;99605.05;5255591;55;1141142;-73
2022/09/18 12:09:40;;;;;;;7.50;2.30;;;;;;;11.56;100.00;99604.41;5204144;55;1139031;-73
2022/09/18 12:15:16;;;;;;;13.73;2.60;;;;;;;11.68;100.00;99606.84;5249569;55;1139045;-73
2022/09/18 12:20:47;;;;;;;7.60;2.27;;;;;;;11.74;100.00;99598.33;5251064;55;1141117;-73
2022/09/18 12:26:20;;;;;;;11.17;1.97;;;;;;;11.80;100.00;99592.44;5133596;57;1139063;-73
2022/09/18 12:31:34;;;;;;;10.97;2.60;;;;;;;11.97;100.00;99591.63;5256213;55;1141096;-73
2022/09/18 12:36:50;;;;;;;8.63;2.60;;;;;;;12.14;100.00;99592.62;5198572;55;1141104;-74
2022/09/18 12:42:24;;;;;;;10.40;3.43;;;;;;;12.27;100.00;99591.25;5255034;55;1139029;-74
2022/09/18 12:47:46;;;;;;;7.53;2.50;;;;;;;12.39;100.00;99583.05;5246041;55;1139040;-74
2022/09/18 12:53:13;;;;;;;6.63;2.07;;;;;;;12.59;100.00;99576.59;5250394;55;1137001;-74
2022/09/18 12:58:39;;;;;;;14.13;2.37;;;;;;;12.80;100.00;99574.42;5241434;55;1137002;-74
2022/09/18 13:03:47;;;;;;;8.97;2.27;;;;;;;13.02;100.00;99566.41;5227347;55;1139142;-74
2022/09/18 13:09:00;;;;;;;7.43;2.07;;;;;;;13.11;97.73;99568.13;5146858;57;1135072;-73
2022/09/18 13:14:27;;;;;;;11.22;1.77;;;;;;;13.11;98.17;99573.94;5022558;57;1137132;-73
2022/09/18 13:20:05;;;;;;;4.63;1.47;;;;;;;13.04;95.26;99563.11;5143183;56;1138988;-74
2022/09/18 13:25:32;;;;;;;4.27;1.50;;;;;;;13.13;95.62;99564.83;5026928;57;1137010;-73
2022/09/18 13:30:39;;;;;;;13.00;2.17;;;;;;;13.20;91.93;99553.92;4999442;58;1136930;-73
2022/09/18 13:35:49;;;;;;;11.23;2.47;;;;;;;13.37;94.48;99549.52;4853465;60;1139139;-73
2022/09/18 13:41:04;;;;;;;4.03;1.40;;;;;;;13.70;95.04;99547.30;5001241;58;1139600;-74
2022/09/18 13:46:32;;;;;;;6.57;2.20;;;;;;;13.72;90.41;99555.95;5009328;58;1136898;-74
2022/09/18 13:51:39;;;;;;;6.13;2.30;;;;;;;13.65;93.03;99560.23;5176241;56;1137174;-73
2022/09/18 13:57:18;;;;;;;6.03;2.17;;;;;;;13.57;93.04;99569.52;5171117;56;1136960;-73
2022/09/18 14:02:32;;;;;;;7.60;1.63;;;;;;;13.48;92.35;99561.66;5108094;57;1137004;-73
2022/09/18 14:07:52;;;;;;;4.03;1.80;;;;;;;13.67;92.54;99558.25;5066990;57;1134766;-74
2022/09/18 14:13:31;;;;;;;4.40;1.47;;;;;;;14.39;85.00;99559.31;5070396;57;1134936;-74
2022/09/18 14:18:51;;;;;;;4.37;0.83;;;;;;;14.39;85.00;99559.31;5064384;57;1135284;-74
2022/09/18 14:24:07;;;;;;;5.00;1.00;;;;;;;14.66;76.90;99560.02;5124072;56;1135182;-74
2022/09/18 14:29:18;;;;;;;7.47;1.70;;;;;;;14.75;77.28;99549.68;5206351;56;1133297;-73
2022/09/18 14:34:41;;;;;;;4.37;1.12;;;;;;;14.88;74.40;99551.31;5206347;56;1136986;-74
2022/09/18 14:39:47;;;;;;;4.93;1.47;;;;;;;15.10;77.19;99549.27;5218940;56;1137181;-74
2022/09/18 14:45:09;;;;;;;4.07;1.10;;;;;;;14.95;72.35;99557.63;5185458;56;1137040;-73
2022/09/18 14:50:39;;;;;;;6.55;1.80;;;;;;;14.95;72.35;99557.63;5211594;55;1136874;-73
2022/09/18 14:55:49;;;;;;;6.93;2.00;;;;;;;14.78;75.60;99552.84;5133796;56;1136971;-73
2022/09/18 15:00:57;;;;;;;6.90;1.63;;;;;;;14.94;73.47;99559.13;5207364;55;1136931;-74
2022/09/18 15:06:22;;;;;;;5.80;1.60;;;;;;;15.12;71.87;99553.89;5220154;55;1137044;-74
2022/09/18 15:11:29;;;;;;;2.07;0.97;;;;;;;14.98;73.03;99557.77;5077018;57;1136976;-73
2022/09/18 15:16:35;;;;;;;4.70;1.13;;;;;;;14.71;71.01;99548.34;4994445;58;1137046;-74
2022/09/18 15:21:46;;;;;;;4.87;1.03;;;;;;;14.54;73.07;99558.67;4960421;58;1137001;-74
2022/09/18 15:26:58;;;;;;;6.50;1.60;;;;;;;14.32;75.37;99561.50;5057387;57;1137278;-73
2022/09/18 15:32:06;;;;;;;12.15;1.98;;;;;;;14.19;77.19;99562.50;5189556;56;1136983;-74
2022/09/18 15:37:22;;;;;;;8.20;1.53;;;;;;;14.08;77.49;99560.97;5139923;56;1138986;-74
2022/09/18 15:42:40;;;;;;;4.90;2.40;;;;;;;13.95;77.88;99560.63;5243212;55;1136932;-74
2022/09/18 15:47:46;;;;;;;3.87;2.20;;;;;;;13.86;78.56;99557.13;5240734;55;1136915;-74
2022/09/18 15:53:04;;;;;;;7.67;2.00;;;;;;;13.77;79.23;99550.62;5266504;55;1137182;-74
2022/09/18 15:58:20;;;;;;;7.83;2.43;;;;;;;13.74;79.46;99554.45;5243667;55;1134893;-74
2022/09/18 16:03:29;;;;;;;2.67;0.83;;;;;;;13.66;80.04;99556.58;5139629;57;1134864;-74
2022/09/18 16:08:37;;;;;;;11.23;1.23;;;;;;;13.60;77.62;99553.73;5143857;57;1134911;-74
2022/09/18 16:13:43;;;;;;;3.63;0.93;;;;;;;13.59;78.82;99556.91;5097617;57;1137104;-74
2022/09/18 16:19:00;;;;;;;5.23;1.00;;;;;;;13.63;78.93;99565.36;5152863;57;1134958;-74
2022/09/18 16:24:05;;;;;;;4.53;1.83;;;;;;;13.54;79.23;99571.16;5147518;56;1135131;-74
2022/09/18 16:29:22;;;;;;;1.20;0.50;;;;;;;13.47;79.47;99579.92;5145679;57;1135231;-73
2022/09/18 16:34:29;;;;;;;5.23;0.93;;;;;;;13.32;79.68;99587.66;5144033;57;1134834;-73
2022/09/18 16:39:35;;;;;;;1.23;0.60;;;;;;;13.17;81.17;99590.58;5195096;56;1132899;-74
2022/09/18 16:44:41;;;;;;;3.47;0.90;;;;;;;13.03;81.99;99596.78;5245716;55;1132719;-73
2022/09/18 16:49:49;;;;;;;4.90;1.30;;;;;;;12.86;82.35;99597.66;5206120;56;1137014;-74
2022/09/18 16:54:54;;;;;;;6.20;1.07;;;;;;;12.69;82.82;99602.02;5143924;57;1137204;-73
2022/09/18 17:00:05;;;;;;;1.57;0.90;;;;;;;12.56;83.54;99603.42;5248713;55;1136768;-74
2022/09/18 17:05:11;;;;;;;6.07;1.50;;;;;;;12.41;83.76;99609.77;5242582;55;1136975;-73
2022/09/18 17:10:18;;;;;;;2.42;1.15;;;;;;;12.27;84.27;99605.83;5242322;56;1137167;-74
2022/09/18 17:15:24;;;;;;;3.40;1.30;;;;;;;12.14;84.81;99612.02;5255189;55;1137034;-74
2022/09/18 17:20:29;;;;;;;2.97;1.00;;;;;;;12.03;85.49;99614.89;5242279;55;1137170;-73
2022/09/18 17:25:35;;;;;;;6.33;1.30;;;;;;;11.97;86.04;99615.48;5257215;55;1136953;-73
2022/09/18 17:30:43;;;;;;;7.03;1.40;;;;;;;11.92;86.72;99623.03;5242271;55;1136994;-73
2022/09/18 17:35:49;;;;;;;10.73;2.13;;;;;;;11.87;87.12;99623.50;5260025;55;1137268;-74
2022/09/18 17:40:59;;;;;;;2.60;0.97;;;;;;;11.81;87.90;99628.06;5331981;55;1138929;-73
2022/09/18 17:46:09;;;;;;;2.43;1.03;;;;;;;11.75;88.74;99631.78;5174474;56;1136956;-73
2022/09/18 17:51:17;;;;;;;2.67;1.00;;;;;;;11.70;89.22;99631.38;5176509;56;1136934;-73
2022/09/18 17:56:28;;;;;;;3.93;0.93;;;;;;;11.61;90.09;99633.91;5176255;56;1136881;-74
2022/09/18 18:01:31;;;;;;;2.83;1.03;;;;;;;11.51;90.72;99637.59;5125206;57;1136916;-73
2022/09/18 18:06:37;;;;;;;2.43;1.07;;;;;;;11.45;90.98;99641.69;5066758;57;1136911;-74
2022/09/18 18:11:44;;;;;;;5.33;1.63;;;;;;;11.38;91.76;99640.58;5082669;57;1136971;-74
2022/09/18 18:16:51;;;;;;;3.03;1.07;;;;;;;11.32;92.13;99643.80;5244186;55;1136947;-73
2022/09/18 18:21:57;;;;;;;5.00;1.13;;;;;;;11.27;92.01;99640.28;5193704;56;1136925;-73
2022/09/18 18:27:04;;;;;;;3.50;1.30;;;;;;;11.22;92.83;99639.04;5255890;55;1137026;-73
2022/09/18 18:32:11;;;;;;;2.13;1.10;;;;;;;11.18;93.22;99636.33;5252580;55;1136916;-74
2022/09/18 18:37:18;;;;;;;3.63;1.10;;;;;;;11.14;93.44;99638.45;5235955;55;1137562;-74
2022/09/18 18:42:27;;;;;;;13.20;3.97;;;;;;;11.11;93.66;99636.58;5243039;55;1136956;-74
2022/09/18 18:47:31;;;;;;;20.73;6.10;;;;;;;11.10;93.89;99636.23;5268049;55;1139207;-73
2022/09/18 18:52:38;;;;;;;15.70;6.87;;;;;;;11.14;94.19;99641.59;5156846;56;1139024;-74
2022/09/18 18:57:44;;;;;;;6.77;4.23;;;;;;;11.17;94.27;99642.59;5244080;55;1139284;-74
2022/09/18 19:02:49;;;;;;;5.13;2.90;;;;;;;11.17;94.17;99648.73;5247515;55;1136933;-73
2022/09/18 19:07:56;;;;;;;9.20;4.57;;;;;;;11.15;94.24;99648.55;5158020;56;1136951;-72
2022/09/18 19:13:01;;;;;;;8.20;3.60;;;;;;;11.13;93.95;99642.56;5253221;55;1137390;-73
2022/09/18 19:18:08;;;;;;;5.33;2.77;;;;;;;11.07;93.89;99642.64;5251676;55;1136825;-74
2022/09/18 19:23:15;;;;;;;8.77;3.80;;;;;;;10.98;94.13;99646.64;5275875;55;1136959;-73
2022/09/18 19:28:21;;;;;;;16.50;6.13;;;;;;;10.88;94.61;99646.16;5238024;55;1136862;-73
2022/09/18 19:33:27;;;;;;;45.77;10.23;;;;;;;10.83;94.76;99640.48;5245602;55;1138896;-73
2022/09/18 19:38:35;;;;;;;33.07;7.70;;;;;;;10.79;94.44;99647.02;5253247;55;1141409;-73
2022/09/18 19:43:41;;;;;;;17.47;5.23;;;;;;;10.72;94.50;99647.71;5238987;55;1137354;-74
2022/09/18 19:48:46;;;;;;;10.90;3.83;;;;;;;10.67;94.68;99645.51;5249838;55;1136914;-73
2022/09/18 19:53:52;;;;;;;22.33;5.63;;;;;;;10.59;95.09;99645.36;5156344;56;1136951;-73
2022/09/18 19:58:57;;;;;;;32.10;6.63;;;;;;;10.51;95.27;99644.75;5159874;56;1137165;-74
2022/09/18 20:04:03;;;;;;;19.73;4.83;;;;;;;10.38;95.23;99637.59;5121658;56;1136921;-73
2022/09/18 20:09:10;;;;;;;12.07;5.20;;;;;;;10.27;95.46;99641.67;5158646;56;1137024;-74
2022/09/18 20:14:17;;;;;;;6.17;3.33;;;;;;;10.14;95.67;99643.23;5111252;57;1137182;-74
2022/09/18 20:19:24;;;;;;;5.23;2.80;;;;;;;9.97;96.09;99645.23;5114909;56;1135106;-73
2022/09/18 20:24:31;;;;;;;8.00;3.20;;;;;;;9.83;96.29;99646.94;5055668;58;1132728;-73
2022/09/18 20:29:37;;;;;;;7.13;3.50;;;;;;;9.75;96.77;99644.98;5065289;57;1132778;-73
2022/09/18 20:34:42;;;;;;;6.17;2.80;;;;;;;9.68;97.48;99646.48;5140336;57;1132860;-73
2022/09/18 20:39:48;;;;;;;5.00;2.67;;;;;;;9.65;97.84;99649.87;5265693;55;1132774;-74
2022/09/18 20:44:54;;;;;;;2.93;1.80;;;;;;;9.60;98.00;99652.09;5183175;56;1132995;-73
2022/09/18 20:50:06;;;;;;;11.57;2.10;;;;;;;9.52;99.06;99650.95;5245439;55;1132802;-74
2022/09/18 20:55:17;;;;;;;6.93;2.60;;;;;;;9.42;99.19;99646.61;5262178;55;1134840;-73
2022/09/18 21:00:23;;;;;;;5.87;2.80;;;;;;;9.36;99.76;99651.92;5188668;56;1132790;-74
2022/09/18 21:05:31;;;;;;;5.50;2.70;;;;;;;9.35;99.71;99648.09;5255244;55;1130624;-73
2022/09/18 21:10:45;;;;;;;7.97;2.43;;;;;;;9.30;99.21;99650.31;5264218;55;1130714;-74
2022/09/18 21:15:50;;;;;;;4.90;2.10;;;;;;;9.25;99.21;99657.30;5258195;55;1135062;-74
2022/09/18 21:21:02;;;;;;;7.05;2.33;;;;;;;9.20;99.71;99656.84;5188127;56;1135157;-74
2022/09/18 21:26:14;;;;;;;6.23;2.73;;;;;;;9.17;99.91;99657.09;5137645;57;1135153;-74
2022/09/18 21:31:21;;;;;;;13.00;3.17;;;;;;;9.12;99.94;99672.02;5241307;56;1134561;-74
2022/09/18 21:36:27;;;;;;;6.63;2.83;;;;;;;9.08;99.92;99666.64;5225527;56;1136970;-74
2022/09/18 21:41:44;;;;;;;4.77;2.10;;;;;;;9.00;99.67;99674.39;5241780;56;1134746;-73
2022/09/18 21:46:48;;;;;;;3.40;2.10;;;;;;;8.90;99.74;99669.52;5195071;56;1135247;-74
2022/09/18 21:51:56;;;;;;;3.80;2.27;;;;;;;8.81;100.00;99680.36;5229566;56;1134929;-73
2022/09/18 21:57:03;;;;;;;5.77;1.90;;;;;;;8.73;100.00;99670.92;5242632;56;1137252;-74
2022/09/18 22:02:10;;;;;;;4.00;2.67;;;;;;;8.71;100.00;99677.28;5242819;56;1136912;-74
2022/09/18 22:07:17;;;;;;;7.40;3.53;;;;;;;8.64;100.00;99676.97;5202658;55;1137026;-74
2022/09/18 22:12:22;;;;;;;5.35;2.80;;;;;;;8.63;100.00;99669.19;5146214;56;1136943;-73
2022/09/18 22:17:29;;;;;;;6.70;2.20;;;;;;;8.60;100.00;99670.27;5146644;56;1137029;-73
2022/09/18 22:22:36;;;;;;;6.70;2.93;;;;;;;8.53;100.00;99670.45;5146365;56;1137006;-73
2022/09/18 22:27:43;;;;;;;5.03;2.33;;;;;;;8.50;100.00;99664.10;5146007;56;1136987;-74
2022/09/18 22:32:49;;;;;;;7.57;2.43;;;;;;;8.48;100.00;99670.45;5135441;56;1137377;-73
2022/09/18 22:37:54;;;;;;;3.30;2.10;;;;;;;8.42;100.00;99673.94;5175463;56;1136886;-74
2022/09/18 22:43:00;;;;;;;5.75;1.80;;;;;;;8.39;100.00;99676.85;5228031;56;1136851;-74
2022/09/18 22:48:06;;;;;;;7.97;2.40;;;;;;;8.32;100.00;99677.46;5227829;56;1136959;-74
2022/09/18 22:53:12;;;;;;;3.83;1.50;;;;;;;8.27;100.00;99679.59;5228901;55;1137110;-74
2022/09/18 22:58:19;;;;;;;3.53;2.47;;;;;;;8.25;100.00;99669.17;5228872;55;1136978;-73
2022/09/18 23:03:25;;;;;;;3.73;2.43;;;;;;;8.20;100.00;99674.00;5198134;55;1136952;-74
2022/09/18 23:08:31;;;;;;;6.10;2.70;;;;;;;8.21;100.00;99677.47;5142944;56;1137174;-74
2022/09/18 23:13:39;;;;;;;7.63;2.33;;;;;;;8.22;100.00;99672.56;5143068;57;1137038;-74
2022/09/18 23:19:02;;;;;;;4.73;2.70;;;;;;;8.23;100.00;99673.77;5142395;56;1136925;-74
2022/09/18 23:24:09;;;;;;;5.50;2.10;;;;;;;8.22;100.00;99673.88;5142584;56;1136822;-73
2022/09/18 23:29:20;;;;;;;8.10;2.30;;;;;;;8.19;100.00;99674.13;5142838;55;1136928;-74
2022/09/18 23:34:30;;;;;;;4.43;1.90;;;;;;;8.15;100.00;99674.01;5142618;56;1137097;-74
2022/09/18 23:39:36;;;;;;;5.20;1.80;;;;;;;8.03;100.00;99677.16;5161950;56;1135029;-73
2022/09/18 23:44:41;;;;;;;9.20;3.20;;;;;;;7.97;100.00;99672.38;5186486;56;1135017;-74
2022/09/18 23:49:47;;;;;;;4.87;1.83;;;;;;;7.93;100.00;99674.92;5228743;55;1134842;-74